samedi 12 juillet 2014

ALERTE SPOTTING 12/07/14 (MàJ 10h30)

***
343 Air Algérie CS-TQM AH1006/AH1007
M83 EC-LTV  AH1086/AH21087
320 LY-VEO Air Algérie   AH1018/AH1019
***

320 blanc G-POWI
   U24242/U24243 09H30/10h00

763 EI-DBU Transaero
    UN555/6  13h15/14H50

142 D-AWUE WDL
   dpt AF 7332  08h05
  AF7337/AF7336  11h15/11h5

32A EC-LVP Vueling (sticker Linking Europe)
  dpt  VY8180  07h10
  VY8179/VY8837  11h20/11h55
 VY8838/VY8173  16h50/17h40
arv VY8174  22h55

320 F-GHQE Air Corsica
 (blanc avec titre et sticker 25 anni)
      dpt XK951 08h00
   XK4519/XK4518  15h30/16h20
  XK4517/XK4504  20h20/21h20

Manque les prévisions de certains AB/AH/AZ/BA/BE/IB/KM/TP/TU

*** Horaires en Heure Locale ***
Prévisions matinales soumises à modifications de dernières minutes.

Voir le log du mois pour la version 'définitive' de la journée: 
 http://www.airkalo.com/ORLYAVIATION/Logdumois.html

le TAF de la journée:



METAR: LFPO 120230Z 00000KT 9999 BKN017 15/13 Q1016 NOSIG=

TAF LONG: LFPO 112300Z 1200/1306 25003KT 9999 BKN018 BKN040 PROB30 TEMPO
1201/1206 6000 SCT008 BKN015 BECMG 1212/1214 SCT025 PROB30 TEMPO
1218/1221 27010KT -SHRA SCT030 BKN060 BECMG 1301/1304 21007KT 7000
-RA SCT012 BKN100 TEMPO 1303/1306 4000 RA BKN008=